sensor_id;sensor_type;location;lat;lon;timestamp;P1;durP1;ratioP1;P2;durP2;ratioP2
55483;SDS011;41345;51.704;5.146;2023-07-08T00:04:31;6.77;;;3.70;;
55483;SDS011;41345;51.704;5.146;2023-07-08T00:09:31;9.27;;;4.20;;
55483;SDS011;41345;51.704;5.146;2023-07-08T00:14:31;9.90;;;4.07;;
55483;SDS011;41345;51.704;5.146;2023-07-08T00:19:32;8.00;;;4.13;;
55483;SDS011;41345;51.704;5.146;2023-07-08T00:24:32;6.63;;;4.00;;
55483;SDS011;41345;51.704;5.146;2023-07-08T00:29:32;9.50;;;4.40;;
55483;SDS011;41345;51.704;5.146;2023-07-08T00:34:33;7.50;;;3.50;;
55483;SDS011;41345;51.704;5.146;2023-07-08T00:39:33;14.05;;;4.90;;
55483;SDS011;41345;51.704;5.146;2023-07-08T00:44:33;7.38;;;3.42;;
55483;SDS011;41345;51.704;5.146;2023-07-08T00:49:39;6.87;;;3.70;;
55483;SDS011;41345;51.704;5.146;2023-07-08T00:54:40;7.78;;;4.13;;
55483;SDS011;41345;51.704;5.146;2023-07-08T00:59:51;8.15;;;4.28;;
55483;SDS011;41345;51.704;5.146;2023-07-08T01:04:55;11.15;;;4.45;;
55483;SDS011;41345;51.704;5.146;2023-07-08T01:14:57;9.02;;;4.45;;
55483;SDS011;41345;51.704;5.146;2023-07-08T01:20:00;8.27;;;4.33;;
55483;SDS011;41345;51.704;5.146;2023-07-08T01:25:06;7.50;;;4.38;;
55483;SDS011;41345;51.704;5.146;2023-07-08T01:30:07;8.70;;;4.30;;
55483;SDS011;41345;51.704;5.146;2023-07-08T01:35:08;11.55;;;4.82;;
55483;SDS011;41345;51.704;5.146;2023-07-08T01:40:16;10.00;;;5.15;;
55483;SDS011;41345;51.704;5.146;2023-07-08T01:45:18;8.25;;;4.85;;
55483;SDS011;41345;51.704;5.146;2023-07-08T01:50:18;12.80;;;4.53;;
55483;SDS011;41345;51.704;5.146;2023-07-08T01:55:20;8.23;;;4.75;;
55483;SDS011;41345;51.704;5.146;2023-07-08T02:00:21;8.38;;;4.90;;
55483;SDS011;41345;51.704;5.146;2023-07-08T02:05:22;7.40;;;4.95;;
55483;SDS011;41345;51.704;5.146;2023-07-08T02:10:22;8.57;;;5.10;;
55483;SDS011;41345;51.704;5.146;2023-07-08T02:15:25;9.30;;;4.45;;
55483;SDS011;41345;51.704;5.146;2023-07-08T02:20:26;8.60;;;4.38;;
55483;SDS011;41345;51.704;5.146;2023-07-08T02:25:26;10.95;;;4.75;;
55483;SDS011;41345;51.704;5.146;2023-07-08T02:30:27;7.65;;;4.45;;
55483;SDS011;41345;51.704;5.146;2023-07-08T02:35:28;9.95;;;4.60;;
55483;SDS011;41345;51.704;5.146;2023-07-08T02:40:28;8.98;;;4.50;;
55483;SDS011;41345;51.704;5.146;2023-07-08T02:45:29;8.70;;;5.10;;
55483;SDS011;41345;51.704;5.146;2023-07-08T02:50:29;11.85;;;4.80;;
55483;SDS011;41345;51.704;5.146;2023-07-08T02:55:29;7.95;;;5.15;;
55483;SDS011;41345;51.704;5.146;2023-07-08T03:00:30;9.70;;;5.07;;
55483;SDS011;41345;51.704;5.146;2023-07-08T03:05:31;9.60;;;5.40;;
55483;SDS011;41345;51.704;5.146;2023-07-08T03:10:31;10.63;;;6.10;;
55483;SDS011;41345;51.704;5.146;2023-07-08T03:15:31;9.13;;;6.45;;
55483;SDS011;41345;51.704;5.146;2023-07-08T03:20:32;11.13;;;5.70;;
55483;SDS011;41345;51.704;5.146;2023-07-08T03:25:32;9.57;;;6.65;;
55483;SDS011;41345;51.704;5.146;2023-07-08T03:30:35;9.82;;;7.50;;
55483;SDS011;41345;51.704;5.146;2023-07-08T03:35:35;9.77;;;7.17;;
55483;SDS011;41345;51.704;5.146;2023-07-08T03:40:36;9.50;;;7.15;;
55483;SDS011;41345;51.704;5.146;2023-07-08T03:45:36;9.82;;;6.82;;
55483;SDS011;41345;51.704;5.146;2023-07-08T03:50:36;13.07;;;11.90;;
55483;SDS011;41345;51.704;5.146;2023-07-08T03:55:37;10.93;;;9.80;;
55483;SDS011;41345;51.704;5.146;2023-07-08T04:00:37;12.20;;;8.47;;
55483;SDS011;41345;51.704;5.146;2023-07-08T04:05:37;12.80;;;11.60;;
55483;SDS011;41345;51.704;5.146;2023-07-08T04:10:38;14.90;;;12.47;;
55483;SDS011;41345;51.704;5.146;2023-07-08T04:15:38;14.70;;;13.30;;
55483;SDS011;41345;51.704;5.146;2023-07-08T04:20:38;11.00;;;9.90;;
55483;SDS011;41345;51.704;5.146;2023-07-08T04:25:39;18.30;;;16.60;;
55483;SDS011;41345;51.704;5.146;2023-07-08T04:30:39;16.98;;;15.68;;
55483;SDS011;41345;51.704;5.146;2023-07-08T04:35:41;16.75;;;15.32;;
55483;SDS011;41345;51.704;5.146;2023-07-08T04:40:42;17.80;;;16.45;;
55483;SDS011;41345;51.704;5.146;2023-07-08T04:45:43;17.60;;;16.20;;
55483;SDS011;41345;51.704;5.146;2023-07-08T04:50:45;19.77;;;18.08;;
55483;SDS011;41345;51.704;5.146;2023-07-08T04:55:55;24.73;;;23.08;;
55483;SDS011;41345;51.704;5.146;2023-07-08T05:00:56;23.27;;;21.55;;
55483;SDS011;41345;51.704;5.146;2023-07-08T05:05:56;11.50;;;9.73;;
55483;SDS011;41345;51.704;5.146;2023-07-08T05:10:56;9.55;;;8.02;;
55483;SDS011;41345;51.704;5.146;2023-07-08T05:15:57;9.80;;;8.38;;
55483;SDS011;41345;51.704;5.146;2023-07-08T05:20:57;10.10;;;6.85;;
55483;SDS011;41345;51.704;5.146;2023-07-08T05:26:02;9.35;;;5.88;;
55483;SDS011;41345;51.704;5.146;2023-07-08T05:31:02;11.88;;;5.88;;
55483;SDS011;41345;51.704;5.146;2023-07-08T05:36:02;8.32;;;5.00;;
55483;SDS011;41345;51.704;5.146;2023-07-08T05:41:03;11.13;;;5.47;;
55483;SDS011;41345;51.704;5.146;2023-07-08T05:46:03;7.73;;;4.53;;
55483;SDS011;41345;51.704;5.146;2023-07-08T05:51:04;10.55;;;4.82;;
55483;SDS011;41345;51.704;5.146;2023-07-08T05:56:04;10.90;;;5.30;;
55483;SDS011;41345;51.704;5.146;2023-07-08T06:01:05;8.63;;;4.40;;
55483;SDS011;41345;51.704;5.146;2023-07-08T06:06:05;12.50;;;4.40;;
55483;SDS011;41345;51.704;5.146;2023-07-08T06:11:06;8.48;;;4.47;;
55483;SDS011;41345;51.704;5.146;2023-07-08T06:16:06;9.20;;;4.37;;
55483;SDS011;41345;51.704;5.146;2023-07-08T06:21:07;8.68;;;4.22;;
55483;SDS011;41345;51.704;5.146;2023-07-08T06:26:07;8.07;;;4.03;;
55483;SDS011;41345;51.704;5.146;2023-07-08T06:31:07;9.50;;;4.13;;
55483;SDS011;41345;51.704;5.146;2023-07-08T06:36:07;10.27;;;4.20;;
55483;SDS011;41345;51.704;5.146;2023-07-08T06:41:08;8.40;;;4.32;;
55483;SDS011;41345;51.704;5.146;2023-07-08T06:46:08;12.48;;;4.88;;
55483;SDS011;41345;51.704;5.146;2023-07-08T06:51:08;10.10;;;4.68;;
55483;SDS011;41345;51.704;5.146;2023-07-08T06:56:09;8.70;;;4.90;;
55483;SDS011;41345;51.704;5.146;2023-07-08T07:01:09;11.38;;;4.72;;
55483;SDS011;41345;51.704;5.146;2023-07-08T07:06:09;10.77;;;5.00;;
55483;SDS011;41345;51.704;5.146;2023-07-08T07:11:10;11.50;;;5.13;;
55483;SDS011;41345;51.704;5.146;2023-07-08T07:16:10;10.38;;;4.75;;
55483;SDS011;41345;51.704;5.146;2023-07-08T07:21:10;12.63;;;5.20;;
55483;SDS011;41345;51.704;5.146;2023-07-08T07:26:11;12.10;;;5.35;;
55483;SDS011;41345;51.704;5.146;2023-07-08T07:31:11;10.03;;;5.23;;
55483;SDS011;41345;51.704;5.146;2023-07-08T07:36:11;10.93;;;5.38;;
55483;SDS011;41345;51.704;5.146;2023-07-08T07:41:12;8.85;;;5.00;;
55483;SDS011;41345;51.704;5.146;2023-07-08T07:46:13;10.32;;;5.15;;
55483;SDS011;41345;51.704;5.146;2023-07-08T07:51:13;15.13;;;6.10;;
55483;SDS011;41345;51.704;5.146;2023-07-08T07:56:13;12.50;;;5.65;;
55483;SDS011;41345;51.704;5.146;2023-07-08T08:01:14;11.93;;;5.55;;
55483;SDS011;41345;51.704;5.146;2023-07-08T08:06:15;13.63;;;5.57;;
55483;SDS011;41345;51.704;5.146;2023-07-08T08:11:17;10.40;;;5.63;;
55483;SDS011;41345;51.704;5.146;2023-07-08T08:16:18;11.47;;;5.33;;
55483;SDS011;41345;51.704;5.146;2023-07-08T08:21:19;12.30;;;5.90;;
55483;SDS011;41345;51.704;5.146;2023-07-08T08:26:19;13.67;;;5.93;;
55483;SDS011;41345;51.704;5.146;2023-07-08T08:31:20;10.68;;;5.70;;
55483;SDS011;41345;51.704;5.146;2023-07-08T08:36:20;11.23;;;5.90;;
55483;SDS011;41345;51.704;5.146;2023-07-08T08:51:24;11.80;;;5.77;;
55483;SDS011;41345;51.704;5.146;2023-07-08T08:56:31;11.35;;;5.60;;
55483;SDS011;41345;51.704;5.146;2023-07-08T09:01:35;10.88;;;6.03;;
55483;SDS011;41345;51.704;5.146;2023-07-08T09:06:35;14.23;;;6.32;;
55483;SDS011;41345;51.704;5.146;2023-07-08T09:22:06;13.60;;;6.35;;
55483;SDS011;41345;51.704;5.146;2023-07-08T09:27:11;12.45;;;6.90;;
55483;SDS011;41345;51.704;5.146;2023-07-08T09:32:13;12.90;;;6.10;;
55483;SDS011;41345;51.704;5.146;2023-07-08T09:37:24;13.60;;;6.03;;
55483;SDS011;41345;51.704;5.146;2023-07-08T09:42:26;18.45;;;6.00;;
55483;SDS011;41345;51.704;5.146;2023-07-08T09:47:36;11.70;;;6.18;;
55483;SDS011;41345;51.704;5.146;2023-07-08T09:52:37;12.85;;;6.28;;
55483;SDS011;41345;51.704;5.146;2023-07-08T09:57:37;12.60;;;6.18;;
55483;SDS011;41345;51.704;5.146;2023-07-08T10:02:39;18.47;;;7.53;;
55483;SDS011;41345;51.704;5.146;2023-07-08T10:07:40;15.63;;;7.38;;
55483;SDS011;41345;51.704;5.146;2023-07-08T10:12:40;11.52;;;5.90;;
55483;SDS011;41345;51.704;5.146;2023-07-08T10:17:42;10.90;;;6.27;;
55483;SDS011;41345;51.704;5.146;2023-07-08T10:22:47;13.88;;;6.63;;
55483;SDS011;41345;51.704;5.146;2023-07-08T10:54:04;12.35;;;6.65;;
55483;SDS011;41345;51.704;5.146;2023-07-08T11:09:29;14.15;;;6.88;;
55483;SDS011;41345;51.704;5.146;2023-07-08T11:19:38;11.43;;;6.22;;
55483;SDS011;41345;51.704;5.146;2023-07-08T11:24:48;12.15;;;6.60;;
55483;SDS011;41345;51.704;5.146;2023-07-08T11:29:49;13.88;;;6.45;;
55483;SDS011;41345;51.704;5.146;2023-07-08T11:34:51;10.18;;;6.05;;
55483;SDS011;41345;51.704;5.146;2023-07-08T11:44:59;12.70;;;5.93;;
55483;SDS011;41345;51.704;5.146;2023-07-08T11:49:59;12.80;;;6.32;;
55483;SDS011;41345;51.704;5.146;2023-07-08T11:55:22;11.75;;;6.25;;
55483;SDS011;41345;51.704;5.146;2023-07-08T12:00:25;11.93;;;6.18;;
55483;SDS011;41345;51.704;5.146;2023-07-08T12:05:36;13.05;;;6.35;;
55483;SDS011;41345;51.704;5.146;2023-07-08T12:10:39;15.85;;;6.80;;
55483;SDS011;41345;51.704;5.146;2023-07-08T12:15:40;10.93;;;6.20;;
55483;SDS011;41345;51.704;5.146;2023-07-08T12:20:40;11.65;;;6.25;;
55483;SDS011;41345;51.704;5.146;2023-07-08T12:25:41;11.00;;;6.30;;
55483;SDS011;41345;51.704;5.146;2023-07-08T12:30:42;14.55;;;6.32;;
55483;SDS011;41345;51.704;5.146;2023-07-08T12:35:43;12.65;;;6.05;;
55483;SDS011;41345;51.704;5.146;2023-07-08T12:40:43;15.35;;;6.03;;
55483;SDS011;41345;51.704;5.146;2023-07-08T12:45:44;13.57;;;6.23;;
55483;SDS011;41345;51.704;5.146;2023-07-08T12:50:44;12.50;;;6.10;;
55483;SDS011;41345;51.704;5.146;2023-07-08T12:55:44;14.33;;;6.20;;
55483;SDS011;41345;51.704;5.146;2023-07-08T13:00:45;10.77;;;5.77;;
55483;SDS011;41345;51.704;5.146;2023-07-08T13:05:47;12.57;;;5.95;;
55483;SDS011;41345;51.704;5.146;2023-07-08T13:10:48;11.27;;;6.15;;
55483;SDS011;41345;51.704;5.146;2023-07-08T13:15:48;15.05;;;7.05;;
55483;SDS011;41345;51.704;5.146;2023-07-08T13:20:51;15.15;;;6.80;;
55483;SDS011;41345;51.704;5.146;2023-07-08T13:25:52;15.63;;;6.30;;
55483;SDS011;41345;51.704;5.146;2023-07-08T13:30:57;11.82;;;6.03;;
55483;SDS011;41345;51.704;5.146;2023-07-08T13:35:57;11.82;;;6.30;;
55483;SDS011;41345;51.704;5.146;2023-07-08T13:41:00;10.68;;;6.13;;
55483;SDS011;41345;51.704;5.146;2023-07-08T13:46:01;12.93;;;6.28;;
55483;SDS011;41345;51.704;5.146;2023-07-08T13:51:05;13.35;;;5.68;;
55483;SDS011;41345;51.704;5.146;2023-07-08T13:56:14;11.95;;;5.72;;
55483;SDS011;41345;51.704;5.146;2023-07-08T14:01:16;14.18;;;7.05;;
55483;SDS011;41345;51.704;5.146;2023-07-08T14:11:17;13.13;;;6.40;;
55483;SDS011;41345;51.704;5.146;2023-07-08T14:21:20;14.20;;;6.38;;
55483;SDS011;41345;51.704;5.146;2023-07-08T14:26:21;15.70;;;6.53;;
55483;SDS011;41345;51.704;5.146;2023-07-08T14:31:22;13.43;;;6.10;;
55483;SDS011;41345;51.704;5.146;2023-07-08T14:36:24;10.75;;;5.72;;
55483;SDS011;41345;51.704;5.146;2023-07-08T14:41:24;14.90;;;6.40;;
55483;SDS011;41345;51.704;5.146;2023-07-08T14:46:25;10.93;;;5.80;;
55483;SDS011;41345;51.704;5.146;2023-07-08T14:51:25;13.82;;;5.95;;
55483;SDS011;41345;51.704;5.146;2023-07-08T14:56:25;12.25;;;5.35;;
55483;SDS011;41345;51.704;5.146;2023-07-08T15:01:26;13.50;;;5.68;;
55483;SDS011;41345;51.704;5.146;2023-07-08T15:06:29;12.55;;;5.40;;
55483;SDS011;41345;51.704;5.146;2023-07-08T15:11:30;10.63;;;5.63;;
55483;SDS011;41345;51.704;5.146;2023-07-08T15:16:30;10.90;;;5.47;;
55483;SDS011;41345;51.704;5.146;2023-07-08T15:21:31;10.02;;;5.32;;
55483;SDS011;41345;51.704;5.146;2023-07-08T15:26:31;12.73;;;5.87;;
55483;SDS011;41345;51.704;5.146;2023-07-08T15:31:32;10.73;;;5.53;;
55483;SDS011;41345;51.704;5.146;2023-07-08T15:36:33;10.27;;;5.93;;
55483;SDS011;41345;51.704;5.146;2023-07-08T15:41:33;9.68;;;5.43;;
55483;SDS011;41345;51.704;5.146;2023-07-08T15:46:34;16.67;;;6.40;;
55483;SDS011;41345;51.704;5.146;2023-07-08T15:51:35;10.40;;;4.97;;
55483;SDS011;41345;51.704;5.146;2023-07-08T15:56:36;11.80;;;6.10;;
55483;SDS011;41345;51.704;5.146;2023-07-08T16:01:36;12.87;;;5.67;;
55483;SDS011;41345;51.704;5.146;2023-07-08T16:06:37;10.40;;;5.93;;
55483;SDS011;41345;51.704;5.146;2023-07-08T16:11:37;14.20;;;5.05;;
55483;SDS011;41345;51.704;5.146;2023-07-08T16:16:37;15.20;;;6.20;;
55483;SDS011;41345;51.704;5.146;2023-07-08T16:21:38;10.32;;;3.80;;
55483;SDS011;41345;51.704;5.146;2023-07-08T16:26:38;10.05;;;4.15;;
55483;SDS011;41345;51.704;5.146;2023-07-08T16:31:39;11.10;;;4.07;;
55483;SDS011;41345;51.704;5.146;2023-07-08T16:36:40;8.25;;;4.18;;
55483;SDS011;41345;51.704;5.146;2023-07-08T16:41:40;9.68;;;4.28;;
55483;SDS011;41345;51.704;5.146;2023-07-08T16:46:41;9.48;;;3.92;;
55483;SDS011;41345;51.704;5.146;2023-07-08T16:51:41;8.87;;;4.50;;
55483;SDS011;41345;51.704;5.146;2023-07-08T16:56:42;12.38;;;4.05;;
55483;SDS011;41345;51.704;5.146;2023-07-08T17:01:44;9.37;;;3.73;;
55483;SDS011;41345;51.704;5.146;2023-07-08T17:06:44;8.90;;;3.70;;
55483;SDS011;41345;51.704;5.146;2023-07-08T17:11:45;11.17;;;3.30;;
55483;SDS011;41345;51.704;5.146;2023-07-08T17:16:46;7.40;;;3.10;;
55483;SDS011;41345;51.704;5.146;2023-07-08T17:21:48;6.72;;;3.25;;
55483;SDS011;41345;51.704;5.146;2023-07-08T17:26:48;6.38;;;2.75;;
55483;SDS011;41345;51.704;5.146;2023-07-08T17:31:49;9.40;;;3.55;;
55483;SDS011;41345;51.704;5.146;2023-07-08T17:36:50;13.97;;;4.60;;
55483;SDS011;41345;51.704;5.146;2023-07-08T17:41:51;8.48;;;3.35;;
55483;SDS011;41345;51.704;5.146;2023-07-08T17:46:52;11.27;;;3.63;;
55483;SDS011;41345;51.704;5.146;2023-07-08T17:51:53;12.38;;;9.50;;
55483;SDS011;41345;51.704;5.146;2023-07-08T17:56:53;19.92;;;6.82;;
55483;SDS011;41345;51.704;5.146;2023-07-08T18:01:56;14.98;;;4.20;;
55483;SDS011;41345;51.704;5.146;2023-07-08T18:06:57;6.63;;;3.30;;
55483;SDS011;41345;51.704;5.146;2023-07-08T18:11:57;9.07;;;3.72;;
55483;SDS011;41345;51.704;5.146;2023-07-08T18:16:57;8.77;;;3.73;;
55483;SDS011;41345;51.704;5.146;2023-07-08T18:21:58;8.73;;;3.47;;
55483;SDS011;41345;51.704;5.146;2023-07-08T18:27:02;9.75;;;4.15;;
55483;SDS011;41345;51.704;5.146;2023-07-08T18:32:04;9.48;;;3.85;;
55483;SDS011;41345;51.704;5.146;2023-07-08T18:37:08;12.85;;;4.60;;
55483;SDS011;41345;51.704;5.146;2023-07-08T18:42:09;13.75;;;4.97;;
55483;SDS011;41345;51.704;5.146;2023-07-08T18:47:09;8.87;;;4.43;;
55483;SDS011;41345;51.704;5.146;2023-07-08T18:52:10;10.27;;;5.50;;
55483;SDS011;41345;51.704;5.146;2023-07-08T18:57:10;9.85;;;6.25;;
55483;SDS011;41345;51.704;5.146;2023-07-08T19:07:14;15.07;;;11.27;;
55483;SDS011;41345;51.704;5.146;2023-07-08T19:12:15;15.63;;;11.32;;
55483;SDS011;41345;51.704;5.146;2023-07-08T19:17:16;17.70;;;15.80;;
55483;SDS011;41345;51.704;5.146;2023-07-08T19:22:18;11.63;;;10.23;;
55483;SDS011;41345;51.704;5.146;2023-07-08T19:27:19;15.17;;;13.37;;
55483;SDS011;41345;51.704;5.146;2023-07-08T19:32:19;38.00;;;35.70;;
55483;SDS011;41345;51.704;5.146;2023-07-08T19:37:20;37.00;;;34.80;;
55483;SDS011;41345;51.704;5.146;2023-07-08T19:42:22;34.13;;;31.97;;
55483;SDS011;41345;51.704;5.146;2023-07-08T19:47:24;31.13;;;29.30;;
55483;SDS011;41345;51.704;5.146;2023-07-08T19:52:24;21.75;;;20.30;;
55483;SDS011;41345;51.704;5.146;2023-07-08T19:57:24;24.98;;;23.17;;
55483;SDS011;41345;51.704;5.146;2023-07-08T20:02:25;21.85;;;20.33;;
55483;SDS011;41345;51.704;5.146;2023-07-08T20:07:25;31.37;;;29.37;;
55483;SDS011;41345;51.704;5.146;2023-07-08T20:12:25;31.23;;;28.83;;
55483;SDS011;41345;51.704;5.146;2023-07-08T20:17:26;49.80;;;46.90;;
55483;SDS011;41345;51.704;5.146;2023-07-08T20:22:26;27.83;;;25.95;;
55483;SDS011;41345;51.704;5.146;2023-07-08T20:27:26;15.18;;;13.57;;
55483;SDS011;41345;51.704;5.146;2023-07-08T20:32:27;37.05;;;34.05;;
55483;SDS011;41345;51.704;5.146;2023-07-08T20:37:27;35.75;;;33.13;;
55483;SDS011;41345;51.704;5.146;2023-07-08T20:42:27;51.10;;;47.30;;
55483;SDS011;41345;51.704;5.146;2023-07-08T20:47:28;43.88;;;40.40;;
55483;SDS011;41345;51.704;5.146;2023-07-08T20:52:29;29.45;;;27.13;;
55483;SDS011;41345;51.704;5.146;2023-07-08T20:57:29;15.23;;;12.00;;
55483;SDS011;41345;51.704;5.146;2023-07-08T21:02:29;21.23;;;19.67;;
55483;SDS011;41345;51.704;5.146;2023-07-08T21:07:30;33.07;;;30.97;;
55483;SDS011;41345;51.704;5.146;2023-07-08T21:12:30;45.17;;;42.45;;
55483;SDS011;41345;51.704;5.146;2023-07-08T21:17:30;64.07;;;60.53;;
55483;SDS011;41345;51.704;5.146;2023-07-08T21:22:31;40.20;;;37.80;;
55483;SDS011;41345;51.704;5.146;2023-07-08T21:27:32;45.88;;;43.15;;
55483;SDS011;41345;51.704;5.146;2023-07-08T21:32:32;46.15;;;43.38;;
55483;SDS011;41345;51.704;5.146;2023-07-08T21:37:32;78.10;;;73.88;;
55483;SDS011;41345;51.704;5.146;2023-07-08T21:42:33;72.38;;;68.57;;
55483;SDS011;41345;51.704;5.146;2023-07-08T21:47:33;74.87;;;71.07;;
55483;SDS011;41345;51.704;5.146;2023-07-08T21:52:33;79.20;;;74.90;;
55483;SDS011;41345;51.704;5.146;2023-07-08T21:57:34;98.20;;;93.05;;
55483;SDS011;41345;51.704;5.146;2023-07-08T22:02:34;61.78;;;58.28;;
55483;SDS011;41345;51.704;5.146;2023-07-08T22:07:34;33.53;;;31.20;;
55483;SDS011;41345;51.704;5.146;2023-07-08T22:12:34;46.65;;;43.78;;
55483;SDS011;41345;51.704;5.146;2023-07-08T22:17:36;43.60;;;41.00;;
55483;SDS011;41345;51.704;5.146;2023-07-08T22:22:37;58.67;;;55.42;;
55483;SDS011;41345;51.704;5.146;2023-07-08T22:27:37;59.00;;;55.65;;
55483;SDS011;41345;51.704;5.146;2023-07-08T22:32:38;67.43;;;63.73;;
55483;SDS011;41345;51.704;5.146;2023-07-08T22:37:38;71.15;;;67.25;;
55483;SDS011;41345;51.704;5.146;2023-07-08T22:42:38;54.80;;;51.50;;
55483;SDS011;41345;51.704;5.146;2023-07-08T22:47:41;70.40;;;66.60;;
55483;SDS011;41345;51.704;5.146;2023-07-08T22:52:45;61.03;;;57.60;;
55483;SDS011;41345;51.704;5.146;2023-07-08T22:57:45;72.07;;;68.28;;
55483;SDS011;41345;51.704;5.146;2023-07-08T23:02:46;107.25;;;101.85;;
55483;SDS011;41345;51.704;5.146;2023-07-08T23:07:46;98.95;;;93.75;;
55483;SDS011;41345;51.704;5.146;2023-07-08T23:12:47;116.43;;;110.72;;
55483;SDS011;41345;51.704;5.146;2023-07-08T23:17:47;129.03;;;122.63;;
55483;SDS011;41345;51.704;5.146;2023-07-08T23:22:48;110.18;;;104.85;;
55483;SDS011;41345;51.704;5.146;2023-07-08T23:27:48;95.65;;;90.45;;
55483;SDS011;41345;51.704;5.146;2023-07-08T23:32:49;97.57;;;92.43;;
55483;SDS011;41345;51.704;5.146;2023-07-08T23:37:49;78.80;;;74.28;;
55483;SDS011;41345;51.704;5.146;2023-07-08T23:42:49;75.40;;;71.40;;
55483;SDS011;41345;51.704;5.146;2023-07-08T23:47:50;102.13;;;97.05;;
55483;SDS011;41345;51.704;5.146;2023-07-08T23:52:51;78.13;;;73.90;;
55483;SDS011;41345;51.704;5.146;2023-07-08T23:57:51;78.32;;;74.20;;
